createdAt,value
2022-08-26T00:00:56.839Z,101450.25
2022-08-26T00:02:59.007Z,101452.19
2022-08-26T00:05:00.512Z,101452.41
2022-08-26T00:07:02.109Z,101460.59
2022-08-26T00:09:04.834Z,101464.34
2022-08-26T00:11:10.091Z,101453.78
2022-08-26T00:13:12.853Z,101452.25
2022-08-26T00:15:16.450Z,101455.94
2022-08-26T00:17:18.742Z,101455.16
2022-08-26T00:19:21.173Z,101455.38
2022-08-26T00:21:22.918Z,101453.66
2022-08-26T00:23:25.617Z,101465.50
2022-08-26T00:25:30.769Z,101447.75
2022-08-26T00:27:37.042Z,101446.88
2022-08-26T00:29:40.065Z,101448.78
2022-08-26T00:31:42.100Z,101447.91
2022-08-26T00:33:43.852Z,101439.09
2022-08-26T00:35:47.428Z,101441.13
2022-08-26T00:37:49.224Z,101437.81
2022-08-26T00:39:50.772Z,101447.69
2022-08-26T00:41:54.575Z,101435.31
2022-08-26T00:43:56.209Z,101441.66
2022-08-26T00:46:10.396Z,101432.84
2022-08-26T00:48:14.687Z,101441.13
2022-08-26T00:50:20.910Z,101434.13
2022-08-26T00:52:24.281Z,101437.78
2022-08-26T00:54:30.546Z,101435.19
2022-08-26T00:56:38.183Z,101438.75
2022-08-26T00:58:43.021Z,101435.38
2022-08-26T01:00:45.358Z,101437.31
2022-08-26T01:02:48.688Z,101430.31
2022-08-26T01:04:57.936Z,101437.53
2022-08-26T01:07:00.360Z,101434.94
2022-08-26T01:09:02.546Z,101436.78
2022-08-26T01:11:05.415Z,101437.75
2022-08-26T01:13:11.320Z,101442.25
2022-08-26T01:15:17.507Z,101439.69
2022-08-26T01:17:19.349Z,101436.97
2022-08-26T01:19:32.508Z,101434.28
2022-08-26T01:21:41.329Z,101441.50
2022-08-26T01:23:47.474Z,101444.19
2022-08-26T01:25:55.968Z,101443.22
2022-08-26T01:27:59.948Z,101444.19
2022-08-26T01:30:02.518Z,101438.91
2022-08-26T01:32:05.534Z,101444.31
2022-08-26T01:34:17.644Z,101438.06
2022-08-26T01:36:21.326Z,101441.72
2022-08-26T01:38:23.796Z,101437.19
2022-08-26T01:40:32.757Z,101438.16
2022-08-26T01:42:34.393Z,101439.13
2022-08-26T01:44:43.878Z,101440.09
2022-08-26T01:46:48.862Z,101431.28
2022-08-26T01:48:55.059Z,101437.72
2022-08-26T01:50:57.391Z,101444.06
2022-08-26T01:53:02.478Z,101440.50
2022-08-26T01:55:04.910Z,101441.59
2022-08-26T01:57:07.709Z,101446.09
2022-08-26T01:59:13.218Z,101440.81
2022-08-26T02:01:15.734Z,101441.78
2022-08-26T02:03:18.900Z,101437.38
2022-08-26T02:05:22.118Z,101441.13
2022-08-26T02:07:26.625Z,101437.69
2022-08-26T02:09:28.539Z,101451.25
2022-08-26T02:11:33.503Z,101439.72
2022-08-26T02:13:40.002Z,101438.00
2022-08-26T02:15:44.441Z,101439.06
2022-08-26T02:17:47.390Z,101436.44
2022-08-26T02:19:50.400Z,101438.38
2022-08-26T02:21:52.885Z,101441.19
2022-08-26T02:23:56.197Z,101441.38
2022-08-26T02:26:08.712Z,101445.19
2022-08-26T02:28:12.305Z,101443.03
2022-08-26T02:30:21.165Z,101445.06
2022-08-26T02:32:23.386Z,101441.59
2022-08-26T02:34:32.785Z,101438.25
2022-08-26T02:36:34.639Z,101437.59
2022-08-26T02:38:36.436Z,101430.69
2022-08-26T02:40:41.376Z,101435.31
2022-08-26T02:42:43.232Z,101431.88
2022-08-26T02:44:44.744Z,101436.47
2022-08-26T02:46:47.220Z,101431.16
2022-08-26T02:48:48.881Z,101431.16
2022-08-26T02:50:50.389Z,101433.97
2022-08-26T02:52:53.121Z,101423.31
2022-08-26T02:54:54.649Z,101429.66
2022-08-26T02:56:56.726Z,101422.66
2022-08-26T02:58:58.845Z,101428.22
2022-08-26T03:01:01.566Z,101424.78
2022-08-26T03:03:06.741Z,101423.25
2022-08-26T03:05:08.816Z,101425.38
2022-08-26T03:07:10.290Z,101421.06
2022-08-26T03:09:15.974Z,101414.81
2022-08-26T03:11:20.408Z,101408.59
2022-08-26T03:13:23.271Z,101412.34
2022-08-26T03:15:24.895Z,101406.97
2022-08-26T03:17:26.950Z,101400.84
2022-08-26T03:19:28.994Z,101397.28
2022-08-26T03:21:33.211Z,101405.44
2022-08-26T03:23:35.260Z,101400.06
2022-08-26T03:25:36.773Z,101402.00
2022-08-26T03:27:38.365Z,101406.50
2022-08-26T03:29:58.946Z,101404.88
2022-08-26T03:32:01.550Z,101399.69
2022-08-26T03:34:04.192Z,101401.63
2022-08-26T03:36:07.747Z,101404.31
2022-08-26T03:38:10.066Z,101403.44
2022-08-26T03:40:12.164Z,101405.34
2022-08-26T03:42:14.941Z,101398.19
2022-08-26T03:44:16.882Z,101402.81
2022-08-26T03:46:20.611Z,101403.78
2022-08-26T03:48:22.599Z,101397.63
2022-08-26T03:50:25.281Z,101403.97
2022-08-26T03:52:30.110Z,101401.38
2022-08-26T03:54:31.727Z,101400.50
2022-08-26T03:56:33.669Z,101397.94
2022-08-26T03:58:35.483Z,101396.22
2022-08-26T04:00:36.964Z,101397.25
2022-08-26T04:02:38.703Z,101393.81
2022-08-26T04:04:40.248Z,101399.28
2022-08-26T04:06:43.324Z,101400.34
2022-08-26T04:08:46.349Z,101394.50
2022-08-26T04:10:47.833Z,101394.69
2022-08-26T04:12:53.326Z,101399.28
2022-08-26T04:14:54.866Z,101400.34
2022-08-26T04:16:58.773Z,101394.31
2022-08-26T04:19:00.605Z,101395.25
2022-08-26T04:21:02.618Z,101398.91
2022-08-26T04:23:09.568Z,101396.31
2022-08-26T04:25:12.782Z,101390.94
2022-08-26T04:27:14.355Z,101391.81
2022-08-26T04:29:23.941Z,101388.28
2022-08-26T04:31:26.299Z,101396.31
2022-08-26T04:33:32.517Z,101394.50
2022-08-26T04:35:35.198Z,101398.03
2022-08-26T04:37:36.695Z,101399.88
2022-08-26T04:39:38.196Z,101400.97
2022-08-26T04:41:40.200Z,101398.41
2022-08-26T04:43:41.976Z,101393.03
2022-08-26T04:45:43.986Z,101389.47
2022-08-26T04:47:46.786Z,101396.56
2022-08-26T04:49:48.359Z,101388.72
2022-08-26T04:51:49.904Z,101396.94
2022-08-26T04:53:51.387Z,101399.91
2022-08-26T04:55:55.287Z,101406.16
2022-08-26T04:57:57.273Z,101407.19
2022-08-26T04:59:58.766Z,101405.28
2022-08-26T05:02:01.645Z,101402.41
2022-08-26T05:04:05.015Z,101398.69
2022-08-26T05:06:09.703Z,101402.03
2022-08-26T05:08:12.938Z,101403.66
2022-08-26T05:10:14.679Z,101410.75
2022-08-26T05:12:16.425Z,101401.59
2022-08-26T05:14:18.366Z,101407.72
2022-08-26T05:16:19.988Z,101406.97
2022-08-26T05:18:24.211Z,101405.91
2022-08-26T05:20:26.316Z,101407.53
2022-08-26T05:22:27.850Z,101408.59
2022-08-26T05:24:30.202Z,101413.84
2022-08-26T05:26:32.341Z,101412.63
2022-08-26T05:28:33.883Z,101405.31
2022-08-26T05:30:38.101Z,101411.38
2022-08-26T05:32:40.120Z,101409.44
2022-08-26T05:34:42.924Z,101402.16
2022-08-26T05:36:44.609Z,101405.59
2022-08-26T05:38:46.451Z,101411.56
2022-08-26T05:40:52.602Z,101416.72
2022-08-26T05:42:55.077Z,101414.50
2022-08-26T05:44:56.656Z,101423.00
2022-08-26T05:46:58.148Z,101419.16
2022-08-26T05:48:59.738Z,101417.03
2022-08-26T05:51:04.965Z,101418.28
2022-08-26T05:53:08.938Z,101420.75
2022-08-26T05:55:10.481Z,101420.75
2022-08-26T05:57:13.829Z,101422.28
2022-08-26T05:59:16.083Z,101422.94
2022-08-26T06:01:28.035Z,101427.06
2022-08-26T06:03:31.653Z,101426.66
2022-08-26T06:05:38.421Z,101430.03
2022-08-26T06:07:59.290Z,101423.69
2022-08-26T06:10:28.170Z,101430.41
2022-08-26T06:12:22.367Z,101432.13
2022-08-26T06:14:25.916Z,101429.13
2022-08-26T06:16:28.400Z,101431.41
2022-08-26T06:18:36.230Z,101435.81
2022-08-26T06:20:43.494Z,101424.31
2022-08-26T06:23:14.581Z,101412.84
2022-08-26T06:25:34.516Z,101421.00
2022-08-26T06:27:36.751Z,101427.34
2022-08-26T06:29:38.856Z,101415.03
2022-08-26T06:31:40.356Z,101419.19
2022-08-26T06:33:42.901Z,101414.25
2022-08-26T06:35:46.810Z,101410.91
2022-08-26T06:37:49.967Z,101413.84
2022-08-26T06:39:51.547Z,101418.38
2022-08-26T06:41:53.076Z,101406.47
2022-08-26T06:43:54.670Z,101411.53
2022-08-26T06:46:05.231Z,101419.28
2022-08-26T06:48:07.639Z,101414.75
2022-08-26T06:50:09.294Z,101418.19
2022-08-26T06:52:11.258Z,101419.28
2022-08-26T06:54:12.815Z,101420.38
2022-08-26T06:56:17.313Z,101422.00
2022-08-26T06:58:18.841Z,101421.66
2022-08-26T07:00:21.369Z,101424.50
2022-08-26T07:02:23.497Z,101418.66
2022-08-26T07:04:29.949Z,101423.28
2022-08-26T07:06:37.537Z,101431.78
2022-08-26T07:08:40.914Z,101427.66
2022-08-26T07:10:42.925Z,101429.72
2022-08-26T07:12:47.258Z,101430.88
2022-08-26T07:14:48.937Z,101431.44
2022-08-26T07:16:50.962Z,101439.81
2022-08-26T07:18:53.627Z,101436.66
2022-08-26T07:20:55.118Z,101435.56
2022-08-26T07:22:58.917Z,101432.53
2022-08-26T07:25:00.489Z,101433.72
2022-08-26T07:27:07.465Z,101438.13
2022-08-26T07:29:12.496Z,101435.72
2022-08-26T07:31:15.875Z,101446.63
2022-08-26T07:33:17.986Z,101448.47
2022-08-26T07:35:19.563Z,101447.78
2022-08-26T07:37:21.063Z,101440.94
2022-08-26T07:39:23.548Z,101450.06
2022-08-26T07:41:25.775Z,101448.66
2022-08-26T07:43:28.393Z,101452.00
2022-08-26T07:45:30.866Z,101460.84
2022-08-26T07:47:32.633Z,101453.72
2022-08-26T07:49:34.481Z,101458.25
2022-08-26T07:51:37.155Z,101456.53
2022-08-26T07:53:39.852Z,101457.63
2022-08-26T07:55:41.572Z,101461.94
2022-08-26T07:57:43.191Z,101461.47
2022-08-26T07:59:44.853Z,101466.63
2022-08-26T08:01:47.579Z,101467.13
2022-08-26T08:03:51.559Z,101472.78
2022-08-26T08:05:53.347Z,101467.66
2022-08-26T08:08:21.865Z,101468.81
2022-08-26T08:10:21.037Z,101468.97
2022-08-26T08:12:22.826Z,101463.81
2022-08-26T08:14:24.316Z,101463.47
2022-08-26T08:16:28.265Z,101463.75
2022-08-26T08:18:34.134Z,101465.09
2022-08-26T08:20:36.502Z,101467.22
2022-08-26T08:22:38.140Z,101469.69
2022-08-26T08:24:39.626Z,101472.63
2022-08-26T08:26:41.796Z,101474.47
2022-08-26T08:28:43.462Z,101468.53
2022-08-26T08:30:45.665Z,101467.22
2022-08-26T08:32:47.607Z,101469.56
2022-08-26T08:34:49.675Z,101465.50
2022-08-26T08:36:53.526Z,101468.31
2022-08-26T08:38:55.850Z,101471.25
2022-08-26T08:40:57.326Z,101459.69
2022-08-26T08:43:13.516Z,101472.50
2022-08-26T08:45:22.210Z,101462.81
2022-08-26T08:47:29.529Z,101472.50
2022-08-26T08:49:34.213Z,101466.84
2022-08-26T08:51:40.404Z,101470.63
2022-08-26T08:53:45.579Z,101464.59
2022-08-26T08:56:01.955Z,101465.94
2022-08-26T08:58:12.076Z,101473.91
2022-08-26T09:00:19.680Z,101469.38
2022-08-26T09:02:43.038Z,101466.56
2022-08-26T09:05:07.878Z,101469.50
2022-08-26T09:07:16.613Z,101457.28
2022-08-26T09:09:39.586Z,101461.91
2022-08-26T09:11:41.114Z,101456.72
2022-08-26T09:13:49.978Z,101462.38
2022-08-26T09:16:04.443Z,101463.94
2022-08-26T09:18:32.110Z,101461.50
2022-08-26T09:20:48.940Z,101456.22
2022-08-26T09:22:51.677Z,101457.69
2022-08-26T09:24:53.262Z,101461.19
2022-08-26T09:26:57.686Z,101458.94
2022-08-26T09:29:00.370Z,101457.69
2022-08-26T09:31:24.244Z,101454.22
2022-08-26T09:33:31.403Z,101460.56
2022-08-26T09:35:36.594Z,101457.91
2022-08-26T09:37:40.571Z,101452.41
2022-08-26T09:39:42.670Z,101452.78
2022-08-26T09:41:44.165Z,101445.72
2022-08-26T09:44:09.170Z,101446.88
2022-08-26T09:46:28.780Z,101445.22
2022-08-26T09:48:36.870Z,101444.97
2022-08-26T09:50:59.869Z,101445.19
2022-08-26T09:53:16.596Z,101443.91
2022-08-26T09:55:22.700Z,101438.81
2022-08-26T09:57:34.241Z,101429.56
2022-08-26T09:59:36.083Z,101425.88
2022-08-26T10:01:44.712Z,101438.66
2022-08-26T10:03:47.102Z,101436.09
2022-08-26T10:06:02.584Z,101436.53
2022-08-26T10:08:19.896Z,101425.81
2022-08-26T10:10:33.477Z,101428.38
2022-08-26T10:12:44.445Z,101429.28
2022-08-26T10:14:51.991Z,101423.84
2022-08-26T10:17:01.142Z,101420.72
2022-08-26T10:19:10.583Z,101422.88
2022-08-26T10:21:21.162Z,101424.16
2022-08-26T10:23:27.766Z,101422.69
2022-08-26T10:25:34.397Z,101421.72
2022-08-26T10:27:53.924Z,101417.84
2022-08-26T10:30:03.842Z,101423.97
2022-08-26T10:32:13.821Z,101422.69
2022-08-26T10:34:17.824Z,101422.81
2022-08-26T10:37:05.051Z,101414.78
2022-08-26T10:39:08.063Z,101429.19
2022-08-26T10:41:24.144Z,101418.69
2022-08-26T10:43:32.768Z,101417.19
2022-08-26T10:45:38.691Z,101409.56
2022-08-26T10:47:55.665Z,101415.25
2022-08-26T10:50:03.339Z,101416.72
2022-08-26T10:52:18.319Z,101408.72
2022-08-26T10:54:31.539Z,101405.34
2022-08-26T10:56:46.842Z,101405.38
2022-08-26T10:58:57.840Z,101405.19
2022-08-26T11:01:42.156Z,101408.66
2022-08-26T11:04:10.358Z,101410.06
2022-08-26T11:06:18.368Z,101406.16
2022-08-26T11:08:19.838Z,101402.66
2022-08-26T11:10:22.842Z,101410.09
2022-08-26T11:12:37.471Z,101408.53
2022-08-26T11:14:53.214Z,101407.13
2022-08-26T11:16:59.783Z,101407.50
2022-08-26T11:19:01.624Z,101401.75
2022-08-26T11:21:03.618Z,101406.53
2022-08-26T11:23:20.617Z,101405.16
2022-08-26T11:25:29.933Z,101397.00
2022-08-26T11:27:35.338Z,101391.09
2022-08-26T11:29:57.498Z,101392.22
2022-08-26T11:32:00.072Z,101384.38
2022-08-26T11:34:07.166Z,101387.66
2022-08-26T11:36:26.066Z,101386.13
2022-08-26T11:38:29.496Z,101379.09
2022-08-26T11:40:35.361Z,101374.13
2022-08-26T11:42:36.971Z,101376.50
2022-08-26T11:44:49.180Z,101387.09
2022-08-26T11:46:57.471Z,101377.63
2022-08-26T11:49:05.282Z,101378.88
2022-08-26T11:51:13.590Z,101376.34
2022-08-26T11:53:19.233Z,101383.53
2022-08-26T11:55:23.470Z,101377.53
2022-08-26T11:57:26.705Z,101373.66
2022-08-26T11:59:38.726Z,101377.25
2022-08-26T12:01:49.032Z,101378.69
2022-08-26T12:03:52.237Z,101377.69
2022-08-26T12:05:54.444Z,101374.56
2022-08-26T12:07:57.224Z,101376.69
2022-08-26T12:10:02.266Z,101376.81
2022-08-26T12:12:18.488Z,101371.53
2022-08-26T12:14:25.167Z,101363.84
2022-08-26T12:16:40.420Z,101365.56
2022-08-26T12:18:42.011Z,101363.97
2022-08-26T12:20:46.506Z,101362.25
2022-08-26T12:22:48.421Z,101361.56
2022-08-26T12:24:53.812Z,101351.13
2022-08-26T12:27:26.897Z,101349.84
2022-08-26T12:29:29.767Z,101346.66
2022-08-26T12:31:41.005Z,101342.16
2022-08-26T12:33:42.985Z,101336.06
2022-08-26T12:35:44.908Z,101324.44
2022-08-26T12:37:50.804Z,101326.44
2022-08-26T12:39:52.809Z,101332.00
2022-08-26T12:42:02.624Z,101326.09
2022-08-26T12:44:04.119Z,101326.47
2022-08-26T12:46:06.961Z,101323.75
2022-08-26T12:48:36.249Z,101319.44
2022-08-26T12:50:44.471Z,101314.19
2022-08-26T12:53:00.081Z,101319.97
2022-08-26T12:55:19.916Z,101311.38
2022-08-26T12:57:35.090Z,101306.78
2022-08-26T12:59:36.670Z,101299.09
2022-08-26T13:01:43.543Z,101296.38
2022-08-26T13:03:46.346Z,101302.91
2022-08-26T13:05:47.949Z,101311.31
2022-08-26T13:08:09.267Z,101317.88
2022-08-26T13:10:36.301Z,101338.47
2022-08-26T13:12:38.144Z,101331.19
2022-08-26T13:14:40.465Z,101330.84
2022-08-26T13:16:42.663Z,101331.72
2022-08-26T13:18:44.171Z,101326.19
2022-08-26T13:20:45.746Z,101320.69
2022-08-26T13:22:48.753Z,101333.66
2022-08-26T13:25:00.133Z,101326.94
2022-08-26T13:27:03.195Z,101343.53
2022-08-26T13:29:09.578Z,101340.94
2022-08-26T13:31:13.641Z,101357.84
2022-08-26T13:33:16.732Z,101367.13
2022-08-26T13:35:19.766Z,101377.06
2022-08-26T13:37:22.256Z,101389.47
2022-08-26T13:39:36.747Z,101383.16
2022-08-26T13:41:38.436Z,101372.47
2022-08-26T13:43:39.948Z,101380.47
2022-08-26T13:45:41.424Z,101374.78
2022-08-26T13:47:42.916Z,101391.59
2022-08-26T13:49:44.480Z,101395.16
2022-08-26T13:51:45.990Z,101400.97
2022-08-26T13:53:47.649Z,101399.44
2022-08-26T13:55:49.199Z,101401.28
2022-08-26T13:57:50.690Z,101416.44
2022-08-26T13:59:53.935Z,101407.66
2022-08-26T14:01:55.474Z,101400.22
2022-08-26T14:03:57.371Z,101382.75
2022-08-26T14:05:59.360Z,101389.19
2022-08-26T14:08:01.025Z,101384.69
2022-08-26T14:10:02.882Z,101379.69
2022-08-26T14:12:04.469Z,101386.38
2022-08-26T14:14:05.980Z,101387.09
2022-08-26T14:16:20.666Z,101391.16
2022-08-26T14:18:29.289Z,101389.94
2022-08-26T14:20:32.233Z,101388.94
2022-08-26T14:22:33.904Z,101394.09
2022-08-26T14:24:35.389Z,101399.25
2022-08-26T14:26:36.895Z,101403.41
2022-08-26T14:28:38.540Z,101421.53
2022-08-26T14:30:42.091Z,101420.41
2022-08-26T14:32:46.816Z,101427.53
2022-08-26T14:34:48.848Z,101427.88
2022-08-26T14:36:50.321Z,101411.28
2022-08-26T14:38:52.208Z,101406.03
2022-08-26T14:40:53.700Z,101404.31
2022-08-26T14:42:55.296Z,101409.34
2022-08-26T14:45:02.777Z,101412.47
2022-08-26T14:47:06.626Z,101413.69
2022-08-26T14:49:10.704Z,101412.13
2022-08-26T14:51:12.431Z,101402.00
2022-08-26T14:53:33.701Z,101422.38
2022-08-26T14:55:38.677Z,101429.66
2022-08-26T14:57:40.159Z,101440.16
2022-08-26T14:59:49.624Z,101441.47
2022-08-26T15:01:52.650Z,101440.06
2022-08-26T15:03:54.210Z,101438.22
2022-08-26T15:05:55.706Z,101425.84
2022-08-26T15:07:57.226Z,101415.69
2022-08-26T15:09:58.735Z,101426.69
2022-08-26T15:12:00.988Z,101429.72
2022-08-26T15:14:02.775Z,101442.78
2022-08-26T15:16:04.468Z,101451.63
2022-08-26T15:18:06.073Z,101445.06
2022-08-26T15:20:09.280Z,101449.81
2022-08-26T15:22:10.762Z,101441.09
2022-08-26T15:24:13.056Z,101436.69
2022-08-26T15:26:16.476Z,101424.94
2022-08-26T15:28:17.972Z,101423.72
2022-08-26T15:30:19.477Z,101426.75
2022-08-26T15:32:21.079Z,101426.75
2022-08-26T15:34:22.703Z,101417.16
2022-08-26T15:36:24.247Z,101416.81
2022-08-26T15:38:28.001Z,101411.31
2022-08-26T15:40:29.676Z,101415.72
2022-08-26T15:42:31.430Z,101412.94
2022-08-26T15:44:34.093Z,101412.16
2022-08-26T15:46:37.549Z,101402.69
2022-08-26T15:48:40.760Z,101391.41
2022-08-26T15:50:50.705Z,101390.22
2022-08-26T15:52:52.189Z,101390.75
2022-08-26T15:54:53.746Z,101393.22
2022-08-26T15:56:55.259Z,101392.25
2022-08-26T15:58:57.526Z,101400.53
2022-08-26T16:01:00.269Z,101396.03
2022-08-26T16:03:01.762Z,101406.47
2022-08-26T16:05:03.665Z,101400.53
2022-08-26T16:07:05.309Z,101402.38
2022-08-26T16:09:08.000Z,101400.75
2022-08-26T16:11:09.490Z,101401.63
2022-08-26T16:13:14.762Z,101396.56
2022-08-26T16:15:16.941Z,101404.28
2022-08-26T16:17:18.489Z,101407.19
2022-08-26T16:19:20.050Z,101411.59
2022-08-26T16:21:24.634Z,101403.31
2022-08-26T16:23:26.254Z,101408.72
2022-08-26T16:25:28.880Z,101403.34
2022-08-26T16:27:30.585Z,101396.78
2022-08-26T16:29:32.540Z,101403.50
2022-08-26T16:31:34.663Z,101397.22
2022-08-26T16:33:37.831Z,101410.03
2022-08-26T16:35:39.819Z,101406.81
2022-08-26T16:37:42.097Z,101407.38
2022-08-26T16:39:45.136Z,101407.25
2022-08-26T16:41:46.885Z,101407.03
2022-08-26T16:43:48.641Z,101410.56
2022-08-26T16:45:50.139Z,101415.38
2022-08-26T16:47:52.446Z,101422.50
2022-08-26T16:49:54.010Z,101422.38
2022-08-26T16:51:55.571Z,101426.38
2022-08-26T16:54:01.453Z,101429.28
2022-08-26T16:56:03.142Z,101429.94
2022-08-26T16:58:04.684Z,101432.72
2022-08-26T17:00:12.539Z,101432.84
2022-08-26T17:02:14.009Z,101439.09
2022-08-26T17:04:15.679Z,101445.44
2022-08-26T17:06:17.399Z,101434.47
2022-08-26T17:08:28.390Z,101443.19
2022-08-26T17:10:31.645Z,101451.59
2022-08-26T17:12:36.100Z,101457.19
2022-08-26T17:14:37.569Z,101461.31
2022-08-26T17:16:39.612Z,101464.09
2022-08-26T17:18:41.499Z,101476.81
2022-08-26T17:20:45.055Z,101484.25
2022-08-26T17:22:48.583Z,101489.97
2022-08-26T17:24:50.066Z,101492.34
2022-08-26T17:26:53.542Z,101489.00
2022-08-26T17:28:58.099Z,101497.94
2022-08-26T17:31:00.106Z,101496.13
2022-08-26T17:33:01.665Z,101502.16
2022-08-26T17:35:13.773Z,101506.22
2022-08-26T17:37:15.264Z,101509.88
2022-08-26T17:39:16.911Z,101499.38
2022-08-26T17:41:18.945Z,101503.25
2022-08-26T17:43:20.645Z,101498.91
2022-08-26T17:45:22.733Z,101500.28
2022-08-26T17:47:24.335Z,101506.38
2022-08-26T17:49:25.916Z,101502.50
2022-08-26T17:51:27.722Z,101504.03
2022-08-26T17:53:29.420Z,101501.66
2022-08-26T17:55:30.987Z,101501.69
2022-08-26T17:57:32.662Z,101509.44
2022-08-26T17:59:42.343Z,101508.88
2022-08-26T18:01:44.286Z,101513.03
2022-08-26T18:03:45.976Z,101514.53
2022-08-26T18:05:49.786Z,101517.50
2022-08-26T18:07:51.634Z,101520.13
2022-08-26T18:09:53.194Z,101516.56
2022-08-26T18:11:54.691Z,101518.47
2022-08-26T18:13:56.187Z,101517.53
2022-08-26T18:15:57.753Z,101517.31
2022-08-26T18:17:59.872Z,101510.69
2022-08-26T18:20:01.959Z,101520.78
2022-08-26T18:22:03.564Z,101513.38
2022-08-26T18:24:05.594Z,101517.44
2022-08-26T18:26:07.131Z,101514.97
2022-08-26T18:28:13.011Z,101505.75
2022-08-26T18:30:20.709Z,101506.63
2022-08-26T18:32:22.210Z,101503.94
2022-08-26T18:34:23.797Z,101510.38
2022-08-26T18:36:36.597Z,101514.72
2022-08-26T18:38:38.125Z,101518.44
2022-08-26T18:40:45.747Z,101511.34
2022-08-26T18:42:47.221Z,101523.16
2022-08-26T18:44:55.561Z,101519.84
2022-08-26T18:46:57.237Z,101525.31
2022-08-26T18:48:58.935Z,101517.69
2022-08-26T18:51:00.599Z,101523.34
2022-08-26T18:53:02.541Z,101534.69
2022-08-26T18:55:04.435Z,101530.47
2022-08-26T18:57:05.942Z,101536.78
2022-08-26T18:59:09.311Z,101546.56
2022-08-26T19:01:12.438Z,101542.94
2022-08-26T19:03:18.392Z,101545.03
2022-08-26T19:05:21.014Z,101554.53
2022-08-26T19:07:22.873Z,101550.41
2022-08-26T19:09:26.314Z,101552.31
2022-08-26T19:11:31.585Z,101551.53
2022-08-26T19:13:35.479Z,101555.75
2022-08-26T19:15:39.381Z,101550.13
2022-08-26T19:17:41.354Z,101553.56
2022-08-26T19:19:42.919Z,101549.41
2022-08-26T19:21:47.241Z,101546.06
2022-08-26T19:23:49.434Z,101540.88
2022-08-26T19:25:53.214Z,101545.03
2022-08-26T19:27:55.988Z,101529.97
2022-08-26T19:29:58.386Z,101525.94
2022-08-26T19:31:59.997Z,101529.38
2022-08-26T19:35:02.849Z,101532.34
2022-08-26T19:42:53.496Z,101527.16
2022-08-26T19:45:24.388Z,101523.72
2022-08-26T19:47:55.777Z,101519.38
2022-08-26T19:49:57.441Z,101515.94
2022-08-26T19:51:59.320Z,101517.56
2022-08-26T19:54:01.661Z,101514.88
2022-08-26T19:56:03.357Z,101517.56
2022-08-26T19:58:05.233Z,101514.78
2022-08-26T20:00:14.667Z,101517.28
2022-08-26T20:02:16.573Z,101518.34
2022-08-26T20:04:18.196Z,101516.16
2022-08-26T20:06:20.327Z,101518.75
2022-08-26T20:08:22.827Z,101514.25
2022-08-26T20:10:24.728Z,101513.66
2022-08-26T20:12:27.494Z,101510.88
2022-08-26T20:14:29.954Z,101513.94
2022-08-26T20:16:32.752Z,101506.53
2022-08-26T20:18:52.595Z,101516.31
2022-08-26T20:21:12.492Z,101515.44
2022-08-26T20:23:14.023Z,101522.97
2022-08-26T20:25:16.077Z,101527.31
2022-08-26T20:27:17.977Z,101530.06
2022-08-26T20:29:19.676Z,101531.72
2022-08-26T20:31:21.686Z,101527.22
2022-08-26T20:33:23.219Z,101528.44
2022-08-26T20:35:24.797Z,101529.38
2022-08-26T20:37:26.579Z,101535.34
2022-08-26T20:39:31.020Z,101537.66
2022-08-26T20:41:32.898Z,101553.16
2022-08-26T20:43:34.405Z,101546.31
2022-08-26T20:45:36.015Z,101547.91
2022-08-26T20:47:37.648Z,101546.06
2022-08-26T20:49:39.117Z,101541.09
2022-08-26T20:51:45.484Z,101553.63
2022-08-26T20:53:47.552Z,101547.41
2022-08-26T20:55:51.381Z,101561.94
2022-08-26T20:57:52.988Z,101568.19
2022-08-26T20:59:54.501Z,101563.94
2022-08-26T21:01:56.189Z,101560.66
2022-08-26T21:03:57.715Z,101561.44
2022-08-26T21:05:59.544Z,101556.25
2022-08-26T21:08:01.017Z,101556.44
2022-08-26T21:10:03.135Z,101560.75
2022-08-26T21:12:05.122Z,101566.97
2022-08-26T21:14:15.903Z,101566.28
2022-08-26T21:16:19.650Z,101557.47
2022-08-26T21:18:21.180Z,101561.53
2022-08-26T21:20:23.819Z,101564.47
2022-08-26T21:22:25.406Z,101563.69
2022-08-26T21:24:27.013Z,101560.25
2022-08-26T21:26:28.875Z,101567.78
2022-08-26T21:28:30.960Z,101564.47
2022-08-26T21:30:34.189Z,101574.25
2022-08-26T21:32:35.886Z,101579.53
2022-08-26T21:34:37.353Z,101583.69
2022-08-26T21:36:38.919Z,101587.56
2022-08-26T21:38:41.295Z,101587.03
2022-08-26T21:40:42.825Z,101589.66
2022-08-26T21:42:44.340Z,101581.50
2022-08-26T21:44:46.501Z,101579.97
2022-08-26T21:46:55.678Z,101582.16
2022-08-26T21:49:00.334Z,101586.56
2022-08-26T21:51:04.355Z,101582.88
2022-08-26T21:53:06.239Z,101584.25
2022-08-26T21:55:11.576Z,101584.06
2022-08-26T21:57:13.658Z,101590.22
2022-08-26T21:59:17.741Z,101583.81
2022-08-26T22:01:21.710Z,101583.97
2022-08-26T22:03:23.222Z,101580.44
2022-08-26T22:05:24.716Z,101589.34
2022-08-26T22:07:26.201Z,101586.44
2022-08-26T22:09:30.962Z,101587.34
2022-08-26T22:11:32.481Z,101582.94
2022-08-26T22:13:36.905Z,101582.44
2022-08-26T22:15:40.479Z,101582.69
2022-08-26T22:17:41.966Z,101583.72
2022-08-26T22:19:46.215Z,101581.28
2022-08-26T22:21:51.950Z,101582.16
2022-08-26T22:23:57.887Z,101579.84
2022-08-26T22:26:00.267Z,101579.06
2022-08-26T22:28:01.972Z,101574.47
2022-08-26T22:30:03.949Z,101566.25
2022-08-26T22:32:05.722Z,101577.66
2022-08-26T22:34:10.508Z,101579.56
2022-08-26T22:36:27.108Z,101574.63
2022-08-26T22:38:28.606Z,101586.75
2022-08-26T22:40:30.237Z,101587.63
2022-08-26T22:42:31.950Z,101583.03
2022-08-26T22:44:36.359Z,101590.09
2022-08-26T22:46:38.589Z,101592.94
2022-08-26T22:48:40.075Z,101595.97
2022-08-26T22:50:42.756Z,101592.34
2022-08-26T22:52:44.291Z,101588.25
2022-08-26T22:54:45.861Z,101590.00
2022-08-26T22:56:47.406Z,101594.56
2022-08-26T22:58:49.170Z,101592.22
2022-08-26T23:00:50.749Z,101595.28
2022-08-26T23:02:56.769Z,101598.56
2022-08-26T23:04:58.279Z,101604.38
2022-08-26T23:06:59.786Z,101603.84
2022-08-26T23:09:01.274Z,101601.31
2022-08-26T23:11:02.860Z,101600.88
2022-08-26T23:13:07.634Z,101591.97
2022-08-26T23:15:11.525Z,101589.22
2022-08-26T23:17:14.259Z,101597.09
2022-08-26T23:19:18.241Z,101591.63
2022-08-26T23:21:19.787Z,101588.97
2022-08-26T23:23:21.733Z,101605.28
2022-08-26T23:25:23.276Z,101592.44
2022-08-26T23:27:26.905Z,101586.28
2022-08-26T23:29:29.109Z,101586.63
2022-08-26T23:31:31.298Z,101586.44
2022-08-26T23:33:51.452Z,101575.75
2022-08-26T23:35:52.924Z,101575.03
2022-08-26T23:37:55.869Z,101578.66
2022-08-26T23:40:10.312Z,101588.78
2022-08-26T23:42:12.699Z,101578.84
2022-08-26T23:44:14.227Z,101581.44
2022-08-26T23:46:16.034Z,101573.56
2022-08-26T23:48:17.692Z,101572.00
2022-08-26T23:50:45.670Z,101576.75